Dauphin Airport, Manitoba

Past 24 Hour Conditions

This table is a summary of hourly weather conditions for the past 24 hours. This summary includes the following parameters: temperature, humidity, dew point, wind speed and direction, air pressure, visibility and/or wind chill and humidex.
Date / Time
(CDT)
Conditions Temp (°F) Humidity (%) Dew Point (°F) Wind (mph) Pressure (inches) Visibility (miles)
23 April 2014
15:00 Light Rain 44 71 36 SE 18 gust 24 29.9 7
14:00 Mostly Cloudy 47 63 35 SE 20 gust 29 29.9 10
13:00 Sunny 47 63 35 ESE 22 gust 28 29.9 10
12:00 Sunny 46 64 35 ESE 22 gust 28 29.9 10
11:00 Sunny 45 66 34 ESE 17 gust 23 29.9 10
10:00 Sunny 41 67 31 ESE 18 29.9 10
9:00 Sunny 39 77 32 ESE 11 gust 18 29.9 10
8:00 Sunny 36   83 32 ESE 13 29.9 10
7:00 Sunny 36   85 32 ESE 11 29.9 10
6:00 Clear 36   85 32 SE 10 29.9 10
5:00 Clear 37 85 33 ESE 14 gust 21 29.9 10
4:00 Clear 39 85 35 ESE 14 29.9 10
3:00 Clear 41 82 35 SE 15 gust 21 29.9 10
2:00 Mostly Cloudy 42 81 36 ESE 15 30.0 10
1:00 Clear 42 81 37 ESE 13 30.0 10
00:00 Clear 43 81 37 ESE 13 30.0 10
22 April 2014
23:00 Clear 45 78 38 SE 13 30.0 10
22:00 Clear 46 76 39 SE 11 30.0 10
21:00 Clear 48 75 41 SE 15 30.0 10
20:00 Sunny 51 71 42 SE 16 30.0 10
19:00 Sunny 54 60 41 ESE 14 gust 20 30.0 10
18:00 Sunny 56 56 40 SE 20 30.0 10
17:00 Sunny 56 54 40 SE 16 gust 22 30.0 10
16:00 Sunny 57   58 42 ESE 14 30.0 10
15:00 Sunny 57   55 41 ESE 10 30.0 10
N/A
Not available
 ↑ 
Highest temperature
 ↓ 
Lowest temperature

If you require additional historical weather information, please visit Climate Data Online.